sensor_id;sensor_type;location;lat;lon;timestamp;temperature;humidity
24444;DHT22;13346;50.984;5.822;2024-01-16T00:01:19;0.30;99.90
24444;DHT22;13346;50.984;5.822;2024-01-16T00:03:46;0.40;99.90
24444;DHT22;13346;50.984;5.822;2024-01-16T00:06:15;0.50;99.90
24444;DHT22;13346;50.984;5.822;2024-01-16T00:08:42;0.50;99.90
24444;DHT22;13346;50.984;5.822;2024-01-16T00:11:10;0.50;99.90
24444;DHT22;13346;50.984;5.822;2024-01-16T00:13:37;0.50;99.90
24444;DHT22;13346;50.984;5.822;2024-01-16T00:16:05;0.50;99.90
24444;DHT22;13346;50.984;5.822;2024-01-16T00:18:32;0.50;99.90
24444;DHT22;13346;50.984;5.822;2024-01-16T00:21:00;0.50;99.90
24444;DHT22;13346;50.984;5.822;2024-01-16T00:23:30;0.50;99.90
24444;DHT22;13346;50.984;5.822;2024-01-16T00:25:58;0.50;99.90
24444;DHT22;13346;50.984;5.822;2024-01-16T00:28:25;0.50;99.90
24444;DHT22;13346;50.984;5.822;2024-01-16T00:30:53;0.50;99.90
24444;DHT22;13346;50.984;5.822;2024-01-16T00:33:20;0.40;99.90
24444;DHT22;13346;50.984;5.822;2024-01-16T00:35:48;1.40;99.90
24444;DHT22;13346;50.984;5.822;2024-01-16T00:38:15;0.30;99.90
24444;DHT22;13346;50.984;5.822;2024-01-16T00:40:43;0.20;99.90
24444;DHT22;13346;50.984;5.822;2024-01-16T00:43:12;0.20;99.90
24444;DHT22;13346;50.984;5.822;2024-01-16T00:45:39;0.20;99.90
24444;DHT22;13346;50.984;5.822;2024-01-16T00:48:07;0.20;99.90
24444;DHT22;13346;50.984;5.822;2024-01-16T00:50:36;0.20;99.90
24444;DHT22;13346;50.984;5.822;2024-01-16T00:53:03;0.20;99.90
24444;DHT22;13346;50.984;5.822;2024-01-16T00:55:31;0.20;99.90
24444;DHT22;13346;50.984;5.822;2024-01-16T00:57:59;0.20;99.90
24444;DHT22;13346;50.984;5.822;2024-01-16T01:00:27;0.20;99.90
24444;DHT22;13346;50.984;5.822;2024-01-16T01:02:56;0.10;99.90
24444;DHT22;13346;50.984;5.822;2024-01-16T01:05:24;0.20;99.90
24444;DHT22;13346;50.984;5.822;2024-01-16T01:07:54;0.20;99.90
24444;DHT22;13346;50.984;5.822;2024-01-16T01:10:21;0.20;99.90
24444;DHT22;13346;50.984;5.822;2024-01-16T01:12:49;0.20;99.90
24444;DHT22;13346;50.984;5.822;2024-01-16T01:15:20;0.30;99.90
24444;DHT22;13346;50.984;5.822;2024-01-16T01:17:49;0.30;99.90
24444;DHT22;13346;50.984;5.822;2024-01-16T01:20:18;0.30;99.90
24444;DHT22;13346;50.984;5.822;2024-01-16T01:22:45;0.30;99.90
24444;DHT22;13346;50.984;5.822;2024-01-16T01:25:13;0.30;99.90
24444;DHT22;13346;50.984;5.822;2024-01-16T01:27:40;0.40;99.90
24444;DHT22;13346;50.984;5.822;2024-01-16T01:30:08;0.30;99.90
24444;DHT22;13346;50.984;5.822;2024-01-16T01:32:38;0.30;99.90
24444;DHT22;13346;50.984;5.822;2024-01-16T01:35:05;0.40;99.90
24444;DHT22;13346;50.984;5.822;2024-01-16T01:37:33;0.40;99.90
24444;DHT22;13346;50.984;5.822;2024-01-16T01:40:00;0.40;99.90
24444;DHT22;13346;50.984;5.822;2024-01-16T01:42:28;0.30;99.90
24444;DHT22;13346;50.984;5.822;2024-01-16T01:44:55;0.30;99.90
24444;DHT22;13346;50.984;5.822;2024-01-16T01:47:23;0.30;99.90
24444;DHT22;13346;50.984;5.822;2024-01-16T01:49:52;0.30;99.90
24444;DHT22;13346;50.984;5.822;2024-01-16T01:52:20;0.40;99.90
24444;DHT22;13346;50.984;5.822;2024-01-16T01:54:47;0.30;99.90
24444;DHT22;13346;50.984;5.822;2024-01-16T01:57:15;0.30;99.90
24444;DHT22;13346;50.984;5.822;2024-01-16T01:59:42;0.30;99.90
24444;DHT22;13346;50.984;5.822;2024-01-16T02:02:11;0.30;99.90
24444;DHT22;13346;50.984;5.822;2024-01-16T02:04:40;0.30;99.90
24444;DHT22;13346;50.984;5.822;2024-01-16T02:07:10;0.20;99.90
24444;DHT22;13346;50.984;5.822;2024-01-16T02:09:37;0.20;99.90
24444;DHT22;13346;50.984;5.822;2024-01-16T02:12:06;0.20;99.90
24444;DHT22;13346;50.984;5.822;2024-01-16T02:14:34;0.10;99.90
24444;DHT22;13346;50.984;5.822;2024-01-16T02:17:01;0.20;99.90
24444;DHT22;13346;50.984;5.822;2024-01-16T02:19:28;0.10;99.90
24444;DHT22;13346;50.984;5.822;2024-01-16T02:22:00;0.10;99.90
24444;DHT22;13346;50.984;5.822;2024-01-16T02:24:29;0.10;99.90
24444;DHT22;13346;50.984;5.822;2024-01-16T02:26:57;0.10;99.90
24444;DHT22;13346;50.984;5.822;2024-01-16T02:29:24;0.10;99.90
24444;DHT22;13346;50.984;5.822;2024-01-16T02:31:51;0.10;99.90
24444;DHT22;13346;50.984;5.822;2024-01-16T02:34:19;0.10;99.90
24444;DHT22;13346;50.984;5.822;2024-01-16T02:36:46;0.10;99.90
24444;DHT22;13346;50.984;5.822;2024-01-16T02:39:13;0.10;99.90
24444;DHT22;13346;50.984;5.822;2024-01-16T02:41:42;0.10;99.90
24444;DHT22;13346;50.984;5.822;2024-01-16T02:44:09;0.00;99.90
24444;DHT22;13346;50.984;5.822;2024-01-16T02:46:36;0.00;99.90
24444;DHT22;13346;50.984;5.822;2024-01-16T02:49:04;0.00;99.90
24444;DHT22;13346;50.984;5.822;2024-01-16T02:51:33;0.00;99.90
24444;DHT22;13346;50.984;5.822;2024-01-16T02:54:00;0.00;99.90
24444;DHT22;13346;50.984;5.822;2024-01-16T02:56:27;-0.10;99.90
24444;DHT22;13346;50.984;5.822;2024-01-16T02:58:56;0.00;99.90
24444;DHT22;13346;50.984;5.822;2024-01-16T03:01:23;-0.10;99.90
24444;DHT22;13346;50.984;5.822;2024-01-16T03:03:51;-0.10;99.90
24444;DHT22;13346;50.984;5.822;2024-01-16T03:06:22;-0.10;99.90
24444;DHT22;13346;50.984;5.822;2024-01-16T03:08:50;-0.10;99.90
24444;DHT22;13346;50.984;5.822;2024-01-16T03:11:18;0.00;99.90
24444;DHT22;13346;50.984;5.822;2024-01-16T03:13:45;0.00;99.90
24444;DHT22;13346;50.984;5.822;2024-01-16T03:16:14;0.00;99.90
24444;DHT22;13346;50.984;5.822;2024-01-16T03:18:41;-0.10;99.90
24444;DHT22;13346;50.984;5.822;2024-01-16T03:21:08;0.00;99.90
24444;DHT22;13346;50.984;5.822;2024-01-16T03:23:37;0.00;99.90
24444;DHT22;13346;50.984;5.822;2024-01-16T03:26:04;-0.10;99.90
24444;DHT22;13346;50.984;5.822;2024-01-16T03:28:32;-0.10;99.90
24444;DHT22;13346;50.984;5.822;2024-01-16T03:30:59;-0.10;99.90
24444;DHT22;13346;50.984;5.822;2024-01-16T03:33:28;-0.10;99.90
24444;DHT22;13346;50.984;5.822;2024-01-16T03:35:55;0.00;99.90
24444;DHT22;13346;50.984;5.822;2024-01-16T03:38:22;0.00;99.90
24444;DHT22;13346;50.984;5.822;2024-01-16T03:40:50;0.00;99.90
24444;DHT22;13346;50.984;5.822;2024-01-16T03:43:17;-0.10;99.90
24444;DHT22;13346;50.984;5.822;2024-01-16T03:45:44;0.00;99.90
24444;DHT22;13346;50.984;5.822;2024-01-16T03:48:12;-0.10;99.90
24444;DHT22;13346;50.984;5.822;2024-01-16T03:50:41;-0.20;99.90
24444;DHT22;13346;50.984;5.822;2024-01-16T03:53:09;-0.20;99.90
24444;DHT22;13346;50.984;5.822;2024-01-16T03:55:37;-0.30;99.90
24444;DHT22;13346;50.984;5.822;2024-01-16T03:58:04;-0.30;99.90
24444;DHT22;13346;50.984;5.822;2024-01-16T04:00:32;-0.20;99.90
24444;DHT22;13346;50.984;5.822;2024-01-16T04:02:59;-0.30;99.90
24444;DHT22;13346;50.984;5.822;2024-01-16T04:05:26;-0.40;99.90
24444;DHT22;13346;50.984;5.822;2024-01-16T04:07:57;-0.40;99.90
24444;DHT22;13346;50.984;5.822;2024-01-16T04:10:24;-0.40;99.90
24444;DHT22;13346;50.984;5.822;2024-01-16T04:12:51;-0.40;99.90
24444;DHT22;13346;50.984;5.822;2024-01-16T04:15:19;-0.50;99.90
24444;DHT22;13346;50.984;5.822;2024-01-16T04:17:46;-0.60;99.90
24444;DHT22;13346;50.984;5.822;2024-01-16T04:20:14;-0.60;99.90
24444;DHT22;13346;50.984;5.822;2024-01-16T04:22:42;-0.60;99.90
24444;DHT22;13346;50.984;5.822;2024-01-16T04:25:11;-0.60;99.90
24444;DHT22;13346;50.984;5.822;2024-01-16T04:27:38;-0.70;99.90
24444;DHT22;13346;50.984;5.822;2024-01-16T04:30:07;-0.60;99.90
24444;DHT22;13346;50.984;5.822;2024-01-16T04:32:35;-0.70;99.90
24444;DHT22;13346;50.984;5.822;2024-01-16T04:35:02;-0.80;99.90
24444;DHT22;13346;50.984;5.822;2024-01-16T04:37:30;-0.90;99.90
24444;DHT22;13346;50.984;5.822;2024-01-16T04:39:57;-0.90;99.90
24444;DHT22;13346;50.984;5.822;2024-01-16T04:42:26;-0.90;99.90
24444;DHT22;13346;50.984;5.822;2024-01-16T04:44:54;-0.90;99.90
24444;DHT22;13346;50.984;5.822;2024-01-16T04:47:21;-1.00;99.90
24444;DHT22;13346;50.984;5.822;2024-01-16T04:49:48;-1.10;99.90
24444;DHT22;13346;50.984;5.822;2024-01-16T04:52:16;-1.10;99.90
24444;DHT22;13346;50.984;5.822;2024-01-16T04:54:43;-1.20;99.90
24444;DHT22;13346;50.984;5.822;2024-01-16T04:57:11;-1.20;99.90
24444;DHT22;13346;50.984;5.822;2024-01-16T04:59:40;-1.20;99.90
24444;DHT22;13346;50.984;5.822;2024-01-16T05:02:07;-1.10;99.90
24444;DHT22;13346;50.984;5.822;2024-01-16T05:04:37;-1.10;99.90
24444;DHT22;13346;50.984;5.822;2024-01-16T05:07:04;-1.00;99.90
24444;DHT22;13346;50.984;5.822;2024-01-16T05:09:32;-1.00;99.90
24444;DHT22;13346;50.984;5.822;2024-01-16T05:12:00;-1.00;99.90
24444;DHT22;13346;50.984;5.822;2024-01-16T05:14:27;-1.00;99.90
24444;DHT22;13346;50.984;5.822;2024-01-16T05:16:56;-0.90;99.90
24444;DHT22;13346;50.984;5.822;2024-01-16T05:19:23;-0.90;99.90
24444;DHT22;13346;50.984;5.822;2024-01-16T05:21:50;-0.90;99.90
24444;DHT22;13346;50.984;5.822;2024-01-16T05:24:18;-0.80;99.90
24444;DHT22;13346;50.984;5.822;2024-01-16T05:26:45;-0.80;99.90
24444;DHT22;13346;50.984;5.822;2024-01-16T05:29:12;-0.70;99.90
24444;DHT22;13346;50.984;5.822;2024-01-16T05:31:40;-0.70;99.90
24444;DHT22;13346;50.984;5.822;2024-01-16T05:34:10;-0.80;99.90
24444;DHT22;13346;50.984;5.822;2024-01-16T05:36:37;-0.80;99.90
24444;DHT22;13346;50.984;5.822;2024-01-16T05:39:04;-0.90;99.90
24444;DHT22;13346;50.984;5.822;2024-01-16T05:41:33;-1.10;99.90
24444;DHT22;13346;50.984;5.822;2024-01-16T05:44:00;-1.10;99.90
24444;DHT22;13346;50.984;5.822;2024-01-16T05:46:29;-1.20;99.90
24444;DHT22;13346;50.984;5.822;2024-01-16T05:48:57;-1.10;99.90
24444;DHT22;13346;50.984;5.822;2024-01-16T05:51:27;-1.00;99.90
24444;DHT22;13346;50.984;5.822;2024-01-16T05:53:55;-1.00;99.90
24444;DHT22;13346;50.984;5.822;2024-01-16T05:56:22;-0.80;99.90
24444;DHT22;13346;50.984;5.822;2024-01-16T05:58:49;-0.80;99.90
24444;DHT22;13346;50.984;5.822;2024-01-16T06:01:17;-0.90;99.90
24444;DHT22;13346;50.984;5.822;2024-01-16T06:03:45;-0.90;99.90
24444;DHT22;13346;50.984;5.822;2024-01-16T06:06:14;-0.90;99.90
24444;DHT22;13346;50.984;5.822;2024-01-16T06:08:43;-1.00;99.90
24444;DHT22;13346;50.984;5.822;2024-01-16T06:11:10;-1.00;99.90
24444;DHT22;13346;50.984;5.822;2024-01-16T06:13:38;-0.80;99.90
24444;DHT22;13346;50.984;5.822;2024-01-16T06:16:06;-0.90;99.90
24444;DHT22;13346;50.984;5.822;2024-01-16T06:18:34;-0.90;99.90
24444;DHT22;13346;50.984;5.822;2024-01-16T06:21:01;-1.00;99.90
24444;DHT22;13346;50.984;5.822;2024-01-16T06:23:28;-1.10;99.90
24444;DHT22;13346;50.984;5.822;2024-01-16T06:25:58;-1.10;99.90
24444;DHT22;13346;50.984;5.822;2024-01-16T06:28:26;-1.00;99.90
24444;DHT22;13346;50.984;5.822;2024-01-16T06:30:53;-1.00;99.90
24444;DHT22;13346;50.984;5.822;2024-01-16T06:33:20;-1.10;99.90
24444;DHT22;13346;50.984;5.822;2024-01-16T06:35:48;-1.30;99.90
24444;DHT22;13346;50.984;5.822;2024-01-16T06:38:15;-1.30;99.90
24444;DHT22;13346;50.984;5.822;2024-01-16T06:40:42;-1.10;99.90
24444;DHT22;13346;50.984;5.822;2024-01-16T06:43:11;-1.20;99.90
24444;DHT22;13346;50.984;5.822;2024-01-16T06:45:40;-1.30;99.90
24444;DHT22;13346;50.984;5.822;2024-01-16T06:48:08;-1.30;99.90
24444;DHT22;13346;50.984;5.822;2024-01-16T06:50:35;-1.20;99.90
24444;DHT22;13346;50.984;5.822;2024-01-16T06:53:03;-1.20;99.90
24444;DHT22;13346;50.984;5.822;2024-01-16T06:55:30;-1.20;99.90
24444;DHT22;13346;50.984;5.822;2024-01-16T06:57:57;-1.30;99.90
24444;DHT22;13346;50.984;5.822;2024-01-16T07:00:26;-1.20;99.90
24444;DHT22;13346;50.984;5.822;2024-01-16T07:02:53;-1.30;99.90
24444;DHT22;13346;50.984;5.822;2024-01-16T07:05:21;-1.30;99.90
24444;DHT22;13346;50.984;5.822;2024-01-16T07:07:48;-1.30;99.90
24444;DHT22;13346;50.984;5.822;2024-01-16T07:10:15;-1.20;99.90
24444;DHT22;13346;50.984;5.822;2024-01-16T07:12:45;-1.20;99.90
24444;DHT22;13346;50.984;5.822;2024-01-16T07:15:13;-1.20;99.90
24444;DHT22;13346;50.984;5.822;2024-01-16T07:17:42;-1.20;99.90
24444;DHT22;13346;50.984;5.822;2024-01-16T07:20:10;-1.20;99.90
24444;DHT22;13346;50.984;5.822;2024-01-16T07:22:38;-1.10;99.90
24444;DHT22;13346;50.984;5.822;2024-01-16T07:25:06;-1.10;99.90
24444;DHT22;13346;50.984;5.822;2024-01-16T07:27:34;-1.10;99.90
24444;DHT22;13346;50.984;5.822;2024-01-16T07:30:04;-1.00;99.90
24444;DHT22;13346;50.984;5.822;2024-01-16T07:32:32;-1.00;99.90
24444;DHT22;13346;50.984;5.822;2024-01-16T07:35:01;-0.90;99.90
24444;DHT22;13346;50.984;5.822;2024-01-16T07:37:28;-1.00;99.90
24444;DHT22;13346;50.984;5.822;2024-01-16T07:39:56;-0.90;99.90
24444;DHT22;13346;50.984;5.822;2024-01-16T07:42:23;-0.90;99.90
24444;DHT22;13346;50.984;5.822;2024-01-16T07:44:50;-0.90;99.90
24444;DHT22;13346;50.984;5.822;2024-01-16T07:47:18;-0.90;99.90
24444;DHT22;13346;50.984;5.822;2024-01-16T07:49:46;-1.00;99.90
24444;DHT22;13346;50.984;5.822;2024-01-16T07:52:15;-1.00;99.90
24444;DHT22;13346;50.984;5.822;2024-01-16T07:54:42;-0.90;99.90
24444;DHT22;13346;50.984;5.822;2024-01-16T07:57:10;-0.80;99.90
24444;DHT22;13346;50.984;5.822;2024-01-16T07:59:37;-0.70;99.90
24444;DHT22;13346;50.984;5.822;2024-01-16T08:02:06;-0.70;99.90
24444;DHT22;13346;50.984;5.822;2024-01-16T08:04:34;-0.60;99.90
24444;DHT22;13346;50.984;5.822;2024-01-16T08:07:02;-0.60;99.90
24444;DHT22;13346;50.984;5.822;2024-01-16T08:09:31;-0.60;99.90
24444;DHT22;13346;50.984;5.822;2024-01-16T08:11:58;-0.60;99.90
24444;DHT22;13346;50.984;5.822;2024-01-16T08:14:27;-0.60;99.90
24444;DHT22;13346;50.984;5.822;2024-01-16T08:16:54;-0.60;99.90
24444;DHT22;13346;50.984;5.822;2024-01-16T08:19:22;-0.60;99.90
24444;DHT22;13346;50.984;5.822;2024-01-16T08:21:49;-0.60;99.90
24444;DHT22;13346;50.984;5.822;2024-01-16T08:24:17;-0.50;99.90
24444;DHT22;13346;50.984;5.822;2024-01-16T08:26:46;-0.40;99.90
24444;DHT22;13346;50.984;5.822;2024-01-16T08:29:13;-0.30;99.90
24444;DHT22;13346;50.984;5.822;2024-01-16T08:31:41;-0.20;99.90
24444;DHT22;13346;50.984;5.822;2024-01-16T08:34:08;0.00;99.90
24444;DHT22;13346;50.984;5.822;2024-01-16T08:36:35;0.10;99.90
24444;DHT22;13346;50.984;5.822;2024-01-16T08:39:03;0.00;99.90
24444;DHT22;13346;50.984;5.822;2024-01-16T08:41:31;-0.20;99.90
24444;DHT22;13346;50.984;5.822;2024-01-16T08:44:00;-0.30;99.90
24444;DHT22;13346;50.984;5.822;2024-01-16T08:46:28;-0.40;99.90
24444;DHT22;13346;50.984;5.822;2024-01-16T08:48:55;-0.40;99.90
24444;DHT22;13346;50.984;5.822;2024-01-16T08:51:23;-0.40;99.90
24444;DHT22;13346;50.984;5.822;2024-01-16T08:53:51;-0.50;99.90
24444;DHT22;13346;50.984;5.822;2024-01-16T08:56:19;-0.40;99.90
24444;DHT22;13346;50.984;5.822;2024-01-16T08:58:46;-0.40;99.90
24444;DHT22;13346;50.984;5.822;2024-01-16T09:01:15;-0.30;99.90
24444;DHT22;13346;50.984;5.822;2024-01-16T09:03:42;-0.30;99.90
24444;DHT22;13346;50.984;5.822;2024-01-16T09:06:10;-0.30;99.90
24444;DHT22;13346;50.984;5.822;2024-01-16T09:08:37;-0.30;99.90
24444;DHT22;13346;50.984;5.822;2024-01-16T09:11:05;-0.30;99.90
24444;DHT22;13346;50.984;5.822;2024-01-16T09:13:32;-0.30;99.90
24444;DHT22;13346;50.984;5.822;2024-01-16T09:15:59;-0.30;99.90
24444;DHT22;13346;50.984;5.822;2024-01-16T09:18:28;-0.20;99.90
24444;DHT22;13346;50.984;5.822;2024-01-16T09:20:55;-0.10;99.90
24444;DHT22;13346;50.984;5.822;2024-01-16T09:23:23;-0.10;99.90
24444;DHT22;13346;50.984;5.822;2024-01-16T09:25:50;-0.10;99.90
24444;DHT22;13346;50.984;5.822;2024-01-16T09:28:18;-0.10;99.90
24444;DHT22;13346;50.984;5.822;2024-01-16T09:30:45;-0.10;99.90
24444;DHT22;13346;50.984;5.822;2024-01-16T09:33:12;-0.10;99.90
24444;DHT22;13346;50.984;5.822;2024-01-16T09:35:43;-0.10;99.90
24444;DHT22;13346;50.984;5.822;2024-01-16T09:38:10;-0.20;99.90
24444;DHT22;13346;50.984;5.822;2024-01-16T09:40:37;-0.20;99.90
24444;DHT22;13346;50.984;5.822;2024-01-16T09:43:06;-0.20;99.90
24444;DHT22;13346;50.984;5.822;2024-01-16T09:45:37;-0.10;99.90
24444;DHT22;13346;50.984;5.822;2024-01-16T09:48:05;0.00;99.90
24444;DHT22;13346;50.984;5.822;2024-01-16T09:50:35;0.10;99.90
24444;DHT22;13346;50.984;5.822;2024-01-16T09:53:04;0.20;99.90
24444;DHT22;13346;50.984;5.822;2024-01-16T09:55:31;0.40;99.90
24444;DHT22;13346;50.984;5.822;2024-01-16T09:57:59;0.50;99.90
24444;DHT22;13346;50.984;5.822;2024-01-16T10:00:29;0.70;99.90
24444;DHT22;13346;50.984;5.822;2024-01-16T10:02:58;0.60;99.90
24444;DHT22;13346;50.984;5.822;2024-01-16T10:05:27;0.30;99.90
24444;DHT22;13346;50.984;5.822;2024-01-16T10:07:57;0.10;99.90
24444;DHT22;13346;50.984;5.822;2024-01-16T10:10:26;-0.10;99.90
24444;DHT22;13346;50.984;5.822;2024-01-16T10:12:55;-0.20;99.90
24444;DHT22;13346;50.984;5.822;2024-01-16T10:15:23;-0.10;99.90
24444;DHT22;13346;50.984;5.822;2024-01-16T10:17:51;-0.10;99.90
24444;DHT22;13346;50.984;5.822;2024-01-16T10:20:32;0.20;99.90
24444;DHT22;13346;50.984;5.822;2024-01-16T10:22:59;0.60;99.90
24444;DHT22;13346;50.984;5.822;2024-01-16T10:25:28;0.90;99.90
24444;DHT22;13346;50.984;5.822;2024-01-16T10:28:03;1.30;99.90
24444;DHT22;13346;50.984;5.822;2024-01-16T10:30:33;1.60;99.90
24444;DHT22;13346;50.984;5.822;2024-01-16T10:33:13;1.70;99.90
24444;DHT22;13346;50.984;5.822;2024-01-16T10:35:42;1.80;99.90
24444;DHT22;13346;50.984;5.822;2024-01-16T10:38:09;1.70;99.90
24444;DHT22;13346;50.984;5.822;2024-01-16T10:40:38;1.90;99.90
24444;DHT22;13346;50.984;5.822;2024-01-16T10:43:05;2.20;99.90
24444;DHT22;13346;50.984;5.822;2024-01-16T10:45:34;1.90;99.90
24444;DHT22;13346;50.984;5.822;2024-01-16T10:48:02;2.00;99.90
24444;DHT22;13346;50.984;5.822;2024-01-16T10:50:30;2.30;99.90
24444;DHT22;13346;50.984;5.822;2024-01-16T10:53:00;2.40;99.90
24444;DHT22;13346;50.984;5.822;2024-01-16T10:55:29;2.50;99.90
24444;DHT22;13346;50.984;5.822;2024-01-16T10:57:59;2.30;99.90
24444;DHT22;13346;50.984;5.822;2024-01-16T11:00:31;2.30;99.90
24444;DHT22;13346;50.984;5.822;2024-01-16T11:03:04;2.50;99.90
24444;DHT22;13346;50.984;5.822;2024-01-16T11:05:32;2.70;99.90
24444;DHT22;13346;50.984;5.822;2024-01-16T11:08:01;2.60;99.90
24444;DHT22;13346;50.984;5.822;2024-01-16T11:10:31;3.20;99.90
24444;DHT22;13346;50.984;5.822;2024-01-16T11:13:02;3.50;99.90
24444;DHT22;13346;50.984;5.822;2024-01-16T11:15:32;3.30;99.90
24444;DHT22;13346;50.984;5.822;2024-01-16T11:18:00;3.40;99.90
24444;DHT22;13346;50.984;5.822;2024-01-16T11:20:29;3.30;99.90
24444;DHT22;13346;50.984;5.822;2024-01-16T11:22:58;3.50;99.90
24444;DHT22;13346;50.984;5.822;2024-01-16T11:25:31;3.40;99.90
24444;DHT22;13346;50.984;5.822;2024-01-16T11:28:09;3.00;99.90
24444;DHT22;13346;50.984;5.822;2024-01-16T11:30:37;2.90;99.90
24444;DHT22;13346;50.984;5.822;2024-01-16T11:33:05;3.20;99.90
24444;DHT22;13346;50.984;5.822;2024-01-16T11:35:33;3.20;99.90
24444;DHT22;13346;50.984;5.822;2024-01-16T11:38:06;3.50;99.90
24444;DHT22;13346;50.984;5.822;2024-01-16T11:40:35;3.60;99.90
24444;DHT22;13346;50.984;5.822;2024-01-16T11:43:38;3.90;99.90
24444;DHT22;13346;50.984;5.822;2024-01-16T11:46:06;3.60;99.90
24444;DHT22;13346;50.984;5.822;2024-01-16T11:48:34;4.10;99.90
24444;DHT22;13346;50.984;5.822;2024-01-16T11:51:23;3.80;99.90
24444;DHT22;13346;50.984;5.822;2024-01-16T11:53:50;3.60;99.90
24444;DHT22;13346;50.984;5.822;2024-01-16T11:56:37;3.60;99.90
24444;DHT22;13346;50.984;5.822;2024-01-16T11:59:42;3.20;99.90
24444;DHT22;13346;50.984;5.822;2024-01-16T12:02:15;3.10;99.90
24444;DHT22;13346;50.984;5.822;2024-01-16T12:04:52;2.90;99.90
24444;DHT22;13346;50.984;5.822;2024-01-16T12:07:22;3.00;99.90
24444;DHT22;13346;50.984;5.822;2024-01-16T12:09:49;3.00;99.90
24444;DHT22;13346;50.984;5.822;2024-01-16T12:12:17;3.30;99.90
24444;DHT22;13346;50.984;5.822;2024-01-16T12:14:54;3.30;99.90
24444;DHT22;13346;50.984;5.822;2024-01-16T12:17:21;3.40;99.90
24444;DHT22;13346;50.984;5.822;2024-01-16T12:19:48;3.40;99.90
24444;DHT22;13346;50.984;5.822;2024-01-16T12:22:16;3.50;99.90
24444;DHT22;13346;50.984;5.822;2024-01-16T12:24:44;3.30;99.90
24444;DHT22;13346;50.984;5.822;2024-01-16T12:27:13;3.50;99.90
24444;DHT22;13346;50.984;5.822;2024-01-16T12:29:41;4.00;99.90
24444;DHT22;13346;50.984;5.822;2024-01-16T12:32:10;4.40;99.90
24444;DHT22;13346;50.984;5.822;2024-01-16T12:34:44;4.00;99.90
24444;DHT22;13346;50.984;5.822;2024-01-16T12:37:12;3.60;99.90
24444;DHT22;13346;50.984;5.822;2024-01-16T12:39:40;3.60;99.90
24444;DHT22;13346;50.984;5.822;2024-01-16T12:42:08;3.80;99.90
24444;DHT22;13346;50.984;5.822;2024-01-16T12:44:37;3.90;99.90
24444;DHT22;13346;50.984;5.822;2024-01-16T12:47:05;3.90;99.90
24444;DHT22;13346;50.984;5.822;2024-01-16T12:49:40;4.00;99.90
24444;DHT22;13346;50.984;5.822;2024-01-16T12:52:19;4.00;99.90
24444;DHT22;13346;50.984;5.822;2024-01-16T12:54:47;4.00;99.90
24444;DHT22;13346;50.984;5.822;2024-01-16T12:57:18;4.20;99.90
24444;DHT22;13346;50.984;5.822;2024-01-16T12:59:46;4.20;99.90
24444;DHT22;13346;50.984;5.822;2024-01-16T13:02:21;3.60;99.90
24444;DHT22;13346;50.984;5.822;2024-01-16T13:04:56;3.50;99.90
24444;DHT22;13346;50.984;5.822;2024-01-16T13:07:25;4.10;99.90
24444;DHT22;13346;50.984;5.822;2024-01-16T13:10:07;4.60;99.90
24444;DHT22;13346;50.984;5.822;2024-01-16T13:12:35;4.70;99.90
24444;DHT22;13346;50.984;5.822;2024-01-16T13:15:04;4.40;99.90
24444;DHT22;13346;50.984;5.822;2024-01-16T13:17:32;4.10;99.90
24444;DHT22;13346;50.984;5.822;2024-01-16T13:20:02;4.40;99.90
24444;DHT22;13346;50.984;5.822;2024-01-16T13:22:33;4.50;99.90
24444;DHT22;13346;50.984;5.822;2024-01-16T13:25:00;3.80;99.90
24444;DHT22;13346;50.984;5.822;2024-01-16T13:27:28;3.40;99.90
24444;DHT22;13346;50.984;5.822;2024-01-16T13:29:56;3.50;99.90
24444;DHT22;13346;50.984;5.822;2024-01-16T13:32:24;3.70;99.90
24444;DHT22;13346;50.984;5.822;2024-01-16T13:34:52;4.10;99.90
24444;DHT22;13346;50.984;5.822;2024-01-16T13:37:22;4.70;99.90
24444;DHT22;13346;50.984;5.822;2024-01-16T13:39:49;4.50;99.90
24444;DHT22;13346;50.984;5.822;2024-01-16T13:42:16;3.70;99.90
24444;DHT22;13346;50.984;5.822;2024-01-16T13:44:46;3.00;99.90
24444;DHT22;13346;50.984;5.822;2024-01-16T13:47:15;3.00;99.90
24444;DHT22;13346;50.984;5.822;2024-01-16T13:49:44;2.90;99.90
24444;DHT22;13346;50.984;5.822;2024-01-16T13:52:12;2.80;99.90
24444;DHT22;13346;50.984;5.822;2024-01-16T13:54:41;2.80;99.90
24444;DHT22;13346;50.984;5.822;2024-01-16T13:57:09;2.80;99.90
24444;DHT22;13346;50.984;5.822;2024-01-16T13:59:37;2.70;99.90
24444;DHT22;13346;50.984;5.822;2024-01-16T14:02:04;2.60;99.90
24444;DHT22;13346;50.984;5.822;2024-01-16T14:04:34;2.60;99.90
24444;DHT22;13346;50.984;5.822;2024-01-16T14:07:01;2.60;99.90
24444;DHT22;13346;50.984;5.822;2024-01-16T14:09:33;2.40;99.90
24444;DHT22;13346;50.984;5.822;2024-01-16T14:12:03;2.30;99.90
24444;DHT22;13346;50.984;5.822;2024-01-16T14:14:31;2.30;99.90
24444;DHT22;13346;50.984;5.822;2024-01-16T14:16:59;2.40;99.90
24444;DHT22;13346;50.984;5.822;2024-01-16T14:19:26;2.50;99.90
24444;DHT22;13346;50.984;5.822;2024-01-16T14:21:55;2.40;99.90
24444;DHT22;13346;50.984;5.822;2024-01-16T14:24:23;2.30;99.90
24444;DHT22;13346;50.984;5.822;2024-01-16T14:26:50;2.40;99.90
24444;DHT22;13346;50.984;5.822;2024-01-16T14:29:19;2.00;99.90
24444;DHT22;13346;50.984;5.822;2024-01-16T14:31:46;2.30;99.90
24444;DHT22;13346;50.984;5.822;2024-01-16T14:34:14;2.40;99.90
24444;DHT22;13346;50.984;5.822;2024-01-16T14:36:43;2.40;99.90
24444;DHT22;13346;50.984;5.822;2024-01-16T14:39:10;2.60;99.90
24444;DHT22;13346;50.984;5.822;2024-01-16T14:41:39;2.70;99.90
24444;DHT22;13346;50.984;5.822;2024-01-16T14:44:09;2.90;99.90
24444;DHT22;13346;50.984;5.822;2024-01-16T14:46:40;3.00;99.90
24444;DHT22;13346;50.984;5.822;2024-01-16T14:49:09;3.00;99.90
24444;DHT22;13346;50.984;5.822;2024-01-16T14:51:36;2.90;99.90
24444;DHT22;13346;50.984;5.822;2024-01-16T14:54:04;2.80;99.90
24444;DHT22;13346;50.984;5.822;2024-01-16T14:56:31;2.60;99.90
24444;DHT22;13346;50.984;5.822;2024-01-16T14:58:59;2.30;99.90
24444;DHT22;13346;50.984;5.822;2024-01-16T15:01:26;2.10;99.90
24444;DHT22;13346;50.984;5.822;2024-01-16T15:03:55;1.90;99.90
24444;DHT22;13346;50.984;5.822;2024-01-16T15:06:23;2.00;99.90
24444;DHT22;13346;50.984;5.822;2024-01-16T15:08:51;2.00;99.90
24444;DHT22;13346;50.984;5.822;2024-01-16T15:11:19;2.10;99.90
24444;DHT22;13346;50.984;5.822;2024-01-16T15:13:47;2.00;99.90
24444;DHT22;13346;50.984;5.822;2024-01-16T15:16:15;2.00;99.90
24444;DHT22;13346;50.984;5.822;2024-01-16T15:18:44;1.80;99.90
24444;DHT22;13346;50.984;5.822;2024-01-16T15:21:13;1.60;99.90
24444;DHT22;13346;50.984;5.822;2024-01-16T15:23:40;1.50;99.90
24444;DHT22;13346;50.984;5.822;2024-01-16T15:26:07;1.50;99.90
24444;DHT22;13346;50.984;5.822;2024-01-16T15:28:35;1.50;99.90
24444;DHT22;13346;50.984;5.822;2024-01-16T15:31:02;1.30;99.90
24444;DHT22;13346;50.984;5.822;2024-01-16T15:33:32;1.20;99.90
24444;DHT22;13346;50.984;5.822;2024-01-16T15:36:01;1.00;99.90
24444;DHT22;13346;50.984;5.822;2024-01-16T15:38:30;0.90;99.90
24444;DHT22;13346;50.984;5.822;2024-01-16T15:40:57;0.70;99.90
24444;DHT22;13346;50.984;5.822;2024-01-16T15:43:25;0.70;99.90
24444;DHT22;13346;50.984;5.822;2024-01-16T15:45:52;0.60;99.90
24444;DHT22;13346;50.984;5.822;2024-01-16T15:48:19;0.40;99.90